createdAt,value
2019-05-17T00:00:23.106Z,98401.34
2019-05-17T00:02:53.530Z,98391.83
2019-05-17T00:05:26.365Z,98380.25
2019-05-17T00:07:56.770Z,98384.25
2019-05-17T00:10:27.055Z,98376.50
2019-05-17T00:12:59.556Z,98382.71
2019-05-17T00:15:30.262Z,98386.77
2019-05-17T00:18:00.902Z,98381.53
2019-05-17T00:20:31.319Z,98382.14
2019-05-17T00:23:01.854Z,98382.09
2019-05-17T00:25:32.490Z,98374.25
2019-05-17T00:28:03.056Z,98378.17
2019-05-17T00:30:33.641Z,98382.22
2019-05-17T00:33:04.214Z,98388.44
2019-05-17T00:35:34.395Z,98390.28
2019-05-17T00:38:06.600Z,98390.73
2019-05-17T00:40:36.987Z,98391.14
2019-05-17T00:43:07.320Z,98384.43
2019-05-17T00:45:37.922Z,98380.46
2019-05-17T00:48:08.480Z,98387.50
2019-05-17T00:50:40.393Z,98397.51
2019-05-17T00:53:10.762Z,98397.38
2019-05-17T00:55:41.274Z,98403.10
2019-05-17T00:58:12.168Z,98400.70
2019-05-17T01:00:42.552Z,98395.84
2019-05-17T01:03:13.293Z,98387.50
2019-05-17T01:05:44.094Z,98396.24
2019-05-17T01:08:17.287Z,98400.70
2019-05-17T01:10:49.112Z,98408.55
2019-05-17T01:13:19.606Z,98410.31
2019-05-17T01:15:50.144Z,98402.45
2019-05-17T01:18:20.865Z,98404.80
2019-05-17T01:20:51.461Z,98410.97
2019-05-17T01:23:22.126Z,98410.60
2019-05-17T01:25:52.649Z,98410.97
2019-05-17T01:28:22.933Z,98409.66
2019-05-17T01:30:53.711Z,98401.81
2019-05-17T01:33:26.382Z,98404.06
2019-05-17T01:35:57.260Z,98406.28
2019-05-17T01:38:27.578Z,98400.18
2019-05-17T01:40:58.228Z,98395.31
2019-05-17T01:43:30.622Z,98383.55
2019-05-17T01:46:01.291Z,98385.34
2019-05-17T01:48:31.928Z,98387.97
2019-05-17T01:51:02.480Z,98381.87
2019-05-17T01:53:36.317Z,98376.96
2019-05-17T01:56:06.581Z,98378.72
2019-05-17T01:58:37.213Z,98378.27
2019-05-17T02:01:07.908Z,98380.52
2019-05-17T02:03:39.087Z,98383.50
2019-05-17T02:06:09.610Z,98386.12
2019-05-17T02:08:40.149Z,98396.58
2019-05-17T02:11:10.622Z,98400.87
2019-05-17T02:13:41.043Z,98399.11
2019-05-17T02:16:11.520Z,98399.11
2019-05-17T02:18:42.073Z,98390.41
2019-05-17T02:21:12.486Z,98385.22
2019-05-17T02:23:43.121Z,98378.36
2019-05-17T02:26:13.628Z,98374.84
2019-05-17T02:28:44.270Z,98374.88
2019-05-17T02:31:14.722Z,98377.05
2019-05-17T02:33:45.228Z,98371.41
2019-05-17T02:36:15.858Z,98372.27
2019-05-17T02:38:46.405Z,98374.92
2019-05-17T02:41:17.125Z,98372.27
2019-05-17T02:43:48.725Z,98367.84
2019-05-17T02:46:19.009Z,98373.08
2019-05-17T02:48:53.561Z,98373.08
2019-05-17T02:51:23.647Z,98375.28
2019-05-17T02:53:54.790Z,98372.67
2019-05-17T02:56:25.462Z,98373.49
2019-05-17T02:58:55.683Z,98375.66
2019-05-17T03:01:25.968Z,98376.59
2019-05-17T03:03:56.410Z,98375.38
2019-05-17T03:06:27.004Z,98379.38
2019-05-17T03:08:57.607Z,98371.25
2019-05-17T03:11:28.075Z,98369.65
2019-05-17T03:13:58.652Z,98373.29
2019-05-17T03:16:29.030Z,98378.31
2019-05-17T03:18:59.215Z,98381.95
2019-05-17T03:21:29.777Z,98375.04
2019-05-17T03:24:03.157Z,98385.51
2019-05-17T03:26:33.436Z,98384.61
2019-05-17T03:29:03.935Z,98386.48
2019-05-17T03:31:42.620Z,98393.72
2019-05-17T03:34:07.674Z,98402.59
2019-05-17T03:36:38.285Z,98403.45
2019-05-17T03:39:08.727Z,98408.77
2019-05-17T03:41:42.657Z,98408.45
2019-05-17T03:44:13.510Z,98408.56
2019-05-17T03:46:43.886Z,98403.72
2019-05-17T03:49:14.453Z,98399.50
2019-05-17T03:51:46.189Z,98411.28
2019-05-17T03:54:16.594Z,98408.70
2019-05-17T03:56:47.270Z,98411.84
2019-05-17T03:59:17.651Z,98414.77
2019-05-17T04:01:52.528Z,98424.48
2019-05-17T04:04:22.867Z,98420.64
2019-05-17T04:06:53.625Z,98426.53
2019-05-17T04:09:25.285Z,98430.25
2019-05-17T04:11:55.990Z,98423.45
2019-05-17T04:14:26.605Z,98421.69
2019-05-17T04:16:56.885Z,98423.95
2019-05-17T04:19:27.517Z,98426.08
2019-05-17T04:21:58.045Z,98416.63
2019-05-17T04:24:32.347Z,98399.80
2019-05-17T04:27:04.029Z,98399.55
2019-05-17T04:29:34.830Z,98403.62
2019-05-17T04:32:05.443Z,98403.14
2019-05-17T04:34:38.311Z,98417.05
2019-05-17T04:37:08.509Z,98415.80
2019-05-17T04:39:39.115Z,98437.80
2019-05-17T04:42:09.650Z,98442.59
2019-05-17T04:44:43.169Z,98442.40
2019-05-17T04:47:13.611Z,98435.97
2019-05-17T04:49:44.243Z,98431.51
2019-05-17T04:52:14.836Z,98443.05
2019-05-17T04:54:45.494Z,98445.63
2019-05-17T04:57:15.891Z,98444.69
2019-05-17T04:59:46.327Z,98442.18
2019-05-17T05:02:17.268Z,98429.83
2019-05-17T05:04:47.842Z,98422.94
2019-05-17T05:07:24.503Z,98426.61
2019-05-17T05:09:54.899Z,98418.80
2019-05-17T05:12:25.507Z,98413.88
2019-05-17T05:14:56.151Z,98418.91
2019-05-17T05:17:26.663Z,98416.24
2019-05-17T05:19:58.350Z,98412.16
2019-05-17T05:22:33.086Z,98430.33
2019-05-17T05:25:06.777Z,98437.72
2019-05-17T05:27:37.574Z,98436.75
2019-05-17T05:30:11.870Z,98432.23
2019-05-17T05:32:42.755Z,98442.91
2019-05-17T05:35:14.294Z,98441.53
2019-05-17T05:37:46.218Z,98453.74
2019-05-17T05:40:24.597Z,98453.15
2019-05-17T05:42:55.195Z,98458.36
2019-05-17T05:45:25.646Z,98464.64
2019-05-17T05:47:56.178Z,98463.11
2019-05-17T05:50:26.811Z,98461.30
2019-05-17T05:53:15.907Z,98459.30
2019-05-17T05:55:46.209Z,98457.12
2019-05-17T05:58:16.832Z,98458.48
2019-05-17T06:00:47.350Z,98468.36
2019-05-17T06:03:19.859Z,98470.33
2019-05-17T06:05:52.344Z,98466.95
2019-05-17T06:08:22.988Z,98469.37
2019-05-17T06:10:53.402Z,98474.97
2019-05-17T06:13:24.950Z,98476.58
2019-05-17T06:15:56.958Z,98474.59
2019-05-17T06:18:31.758Z,98480.86
2019-05-17T06:21:02.689Z,98481.34
2019-05-17T06:23:32.633Z,98486.22
2019-05-17T06:26:04.668Z,98483.74
2019-05-17T06:28:35.244Z,98482.15
2019-05-17T06:31:05.879Z,98488.10
2019-05-17T06:33:36.511Z,98488.63
2019-05-17T06:36:13.716Z,98499.42
2019-05-17T06:38:44.576Z,98495.27
2019-05-17T06:41:15.105Z,98495.84
2019-05-17T06:43:45.387Z,98497.36
2019-05-17T06:46:16.890Z,98496.83
2019-05-17T06:48:49.604Z,98486.05
2019-05-17T06:51:22.017Z,98490.66
2019-05-17T06:53:52.483Z,98495.47
2019-05-17T06:56:23.062Z,98493.59
2019-05-17T06:58:53.678Z,98497.49
2019-05-17T07:01:29.186Z,98496.08
2019-05-17T07:04:00.101Z,98500.87
2019-05-17T07:06:32.031Z,98502.55
2019-05-17T07:09:05.577Z,98494.66
2019-05-17T07:11:36.221Z,98497.23
2019-05-17T07:14:06.603Z,98503.25
2019-05-17T07:16:39.473Z,98503.51
2019-05-17T07:19:16.907Z,98504.89
2019-05-17T07:21:49.330Z,98503.55
2019-05-17T07:24:19.870Z,98503.53
2019-05-17T07:26:50.281Z,98509.09
2019-05-17T07:29:20.554Z,98506.64
2019-05-17T07:31:56.207Z,98511.98
2019-05-17T07:34:30.744Z,98508.61
2019-05-17T07:37:00.163Z,98512.67
2019-05-17T07:39:30.966Z,98511.90
2019-05-17T07:42:04.256Z,98503.78
2019-05-17T07:44:34.785Z,98511.38
2019-05-17T07:47:05.315Z,98520.76
2019-05-17T07:49:40.330Z,98514.61
2019-05-17T07:52:10.285Z,98520.02
2019-05-17T07:54:42.082Z,98518.89
2019-05-17T07:57:12.339Z,98525.11
2019-05-17T07:59:42.977Z,98512.44
2019-05-17T08:02:14.179Z,98520.13
2019-05-17T08:05:06.049Z,98518.81
2019-05-17T08:07:36.546Z,98512.84
2019-05-17T08:10:07.468Z,98523.19
2019-05-17T08:12:59.788Z,98521.05
2019-05-17T08:15:30.451Z,98519.62
2019-05-17T08:18:02.617Z,98516.20
2019-05-17T08:20:34.759Z,98516.13
2019-05-17T08:23:10.225Z,98514.87
2019-05-17T08:25:52.138Z,98517.16
2019-05-17T08:28:15.363Z,98511.92
2019-05-17T08:30:45.992Z,98514.04
2019-05-17T08:33:16.588Z,98512.52
2019-05-17T08:35:49.323Z,98511.75
2019-05-17T08:38:20.513Z,98521.41
2019-05-17T08:40:51.263Z,98521.72
2019-05-17T08:43:21.546Z,98528.13
2019-05-17T08:45:52.359Z,98526.16
2019-05-17T08:48:22.902Z,98526.41
2019-05-17T08:51:00.250Z,98522.47
2019-05-17T08:53:32.953Z,98530.33
2019-05-17T08:56:03.402Z,98524.41
2019-05-17T08:58:33.703Z,98519.58
2019-05-17T09:01:14.639Z,98516.52
2019-05-17T09:03:45.435Z,98522.15
2019-05-17T09:06:19.760Z,98519.59
2019-05-17T09:08:49.964Z,98521.56
2019-05-17T09:11:21.628Z,98517.19
2019-05-17T09:13:57.948Z,98515.96
2019-05-17T09:16:24.712Z,98514.24
2019-05-17T09:19:14.968Z,98518.75
2019-05-17T09:21:46.096Z,98519.62
2019-05-17T09:24:16.840Z,98515.09
2019-05-17T09:26:49.298Z,98523.17
2019-05-17T09:29:20.090Z,98511.50
2019-05-17T09:31:51.160Z,98507.34
2019-05-17T09:34:25.075Z,98504.11
2019-05-17T09:36:55.789Z,98501.98
2019-05-17T09:39:26.528Z,98499.03
2019-05-17T09:41:59.429Z,98494.42
2019-05-17T09:44:40.396Z,98492.64
2019-05-17T09:47:10.966Z,98486.94
2019-05-17T09:49:41.473Z,98487.05
2019-05-17T09:52:11.793Z,98480.78
2019-05-17T09:54:45.467Z,98486.66
2019-05-17T09:57:16.955Z,98481.48
2019-05-17T09:59:49.542Z,98486.24
2019-05-17T10:02:21.052Z,98482.91
2019-05-17T10:04:51.375Z,98489.13
2019-05-17T10:07:23.533Z,98484.83
2019-05-17T10:09:54.819Z,98482.25
2019-05-17T10:12:26.535Z,98484.16
2019-05-17T10:15:00.288Z,98482.17
2019-05-17T10:17:49.916Z,98478.34
2019-05-17T10:20:20.814Z,98477.45
2019-05-17T10:22:51.086Z,98476.72
2019-05-17T10:25:22.675Z,98474.80
2019-05-17T10:27:53.057Z,98475.22
2019-05-17T10:30:23.574Z,98468.04
2019-05-17T10:32:54.163Z,98460.66
2019-05-17T10:35:43.183Z,98463.36
2019-05-17T10:38:13.549Z,98464.06
2019-05-17T10:41:03.757Z,98454.94
2019-05-17T10:43:34.374Z,98452.72
2019-05-17T10:46:05.029Z,98453.00
2019-05-17T10:48:35.616Z,98448.48
2019-05-17T10:51:06.939Z,98449.47
2019-05-17T10:53:40.279Z,98444.81
2019-05-17T10:56:10.705Z,98439.58
2019-05-17T10:58:42.367Z,98433.01
2019-05-17T11:01:14.192Z,98430.25
2019-05-17T11:03:44.610Z,98430.70
2019-05-17T11:06:15.826Z,98433.63
2019-05-17T11:08:46.526Z,98431.87
2019-05-17T11:11:30.324Z,98428.44
2019-05-17T11:14:06.427Z,98429.00
2019-05-17T11:16:39.675Z,98421.09
2019-05-17T11:19:10.260Z,98421.09
2019-05-17T11:21:43.354Z,98418.39
2019-05-17T11:24:14.883Z,98420.45
2019-05-17T11:26:46.341Z,98426.20
2019-05-17T11:29:16.668Z,98424.39
2019-05-17T11:31:53.555Z,98423.38
2019-05-17T11:34:29.531Z,98419.42
2019-05-17T11:37:01.361Z,98420.69
2019-05-17T11:39:38.018Z,98423.01
2019-05-17T11:42:20.234Z,98425.60
2019-05-17T11:44:50.937Z,98421.02
2019-05-17T11:47:21.799Z,98423.00
2019-05-17T11:50:00.839Z,98422.98
2019-05-17T11:52:32.629Z,98425.47
2019-05-17T11:55:03.847Z,98421.42
2019-05-17T11:57:34.456Z,98426.11
2019-05-17T12:00:07.451Z,98428.73
2019-05-17T12:02:37.859Z,98436.67
2019-05-17T12:05:10.976Z,98428.31
2019-05-17T12:08:19.390Z,98436.22
2019-05-17T12:10:57.139Z,98431.91
2019-05-17T12:13:28.424Z,98427.30
2019-05-17T12:16:03.903Z,98432.33
2019-05-17T12:18:34.278Z,98428.48
2019-05-17T12:21:07.586Z,98426.66
2019-05-17T12:23:42.448Z,98426.36
2019-05-17T12:26:17.089Z,98425.36
2019-05-17T12:29:07.108Z,98415.12
2019-05-17T12:31:38.551Z,98408.31
2019-05-17T12:34:09.085Z,98417.45
2019-05-17T12:36:39.817Z,98417.91
2019-05-17T12:39:14.268Z,98414.24
2019-05-17T12:42:04.532Z,98407.67
2019-05-17T12:44:37.186Z,98403.33
2019-05-17T12:47:08.197Z,98413.04
2019-05-17T12:49:39.922Z,98410.91
2019-05-17T12:52:11.661Z,98400.66
2019-05-17T12:54:41.846Z,98398.50
2019-05-17T12:57:35.798Z,98398.67
2019-05-17T13:00:06.762Z,98403.73
2019-05-17T13:02:38.291Z,98405.56
2019-05-17T13:05:08.621Z,98403.67
2019-05-17T13:07:58.655Z,98400.34
2019-05-17T13:10:30.974Z,98404.09
2019-05-17T13:13:02.629Z,98402.86
2019-05-17T13:15:33.671Z,98403.55
2019-05-17T13:18:20.581Z,98415.70
2019-05-17T13:20:51.074Z,98406.48
2019-05-17T13:23:25.261Z,98417.25
2019-05-17T13:26:00.734Z,98411.71
2019-05-17T13:28:31.364Z,98406.19
2019-05-17T13:31:03.300Z,98398.31
2019-05-17T13:33:33.701Z,98404.31
2019-05-17T13:36:08.349Z,98407.84
2019-05-17T13:38:45.599Z,98395.55
2019-05-17T13:41:16.412Z,98397.70
2019-05-17T13:43:48.196Z,98391.95
2019-05-17T13:46:32.057Z,98397.85
2019-05-17T13:48:50.960Z,98393.73
2019-05-17T13:51:21.583Z,98386.68
2019-05-17T13:53:52.360Z,98390.59
2019-05-17T13:56:24.553Z,98392.91
2019-05-17T13:58:55.797Z,98387.42
2019-05-17T14:01:26.508Z,98395.90
2019-05-17T14:04:16.021Z,98393.27
2019-05-17T14:06:47.232Z,98394.61
2019-05-17T14:09:17.882Z,98387.88
2019-05-17T14:11:49.093Z,98391.70
2019-05-17T14:14:24.405Z,98385.31
2019-05-17T14:16:56.674Z,98392.36
2019-05-17T14:19:35.163Z,98391.89
2019-05-17T14:22:06.796Z,98393.66
2019-05-17T14:24:57.964Z,98391.11
2019-05-17T14:27:31.869Z,98384.45
2019-05-17T14:30:09.248Z,98389.22
2019-05-17T14:32:43.783Z,98383.09
2019-05-17T14:35:14.313Z,98386.84
2019-05-17T14:37:45.060Z,98386.75
2019-05-17T14:40:15.688Z,98392.88
2019-05-17T14:43:02.703Z,98393.47
2019-05-17T14:45:34.105Z,98392.91
2019-05-17T14:48:04.821Z,98394.30
2019-05-17T14:50:35.228Z,98389.98
2019-05-17T14:53:05.929Z,98393.25
2019-05-17T14:55:36.511Z,98389.11
2019-05-17T14:58:07.246Z,98377.02
2019-05-17T15:00:38.074Z,98374.41
2019-05-17T15:03:08.474Z,98374.73
2019-05-17T15:05:39.092Z,98368.58
2019-05-17T15:08:09.731Z,98366.28
2019-05-17T15:10:42.891Z,98372.10
2019-05-17T15:13:17.900Z,98368.20
2019-05-17T15:15:48.672Z,98368.67
2019-05-17T15:18:19.232Z,98372.34
2019-05-17T15:20:55.772Z,98373.92
2019-05-17T15:23:27.607Z,98367.67
2019-05-17T15:25:58.741Z,98371.55
2019-05-17T15:28:29.109Z,98369.79
2019-05-17T15:31:00.379Z,98371.84
2019-05-17T15:33:31.195Z,98380.91
2019-05-17T15:36:03.570Z,98378.13
2019-05-17T15:38:47.677Z,98367.65
2019-05-17T15:41:18.597Z,98370.17
2019-05-17T15:43:49.205Z,98364.79
2019-05-17T15:46:20.992Z,98369.28
2019-05-17T15:48:58.884Z,98366.77
2019-05-17T15:51:29.185Z,98364.67
2019-05-17T15:54:00.312Z,98368.78
2019-05-17T15:56:30.727Z,98358.31
2019-05-17T15:59:09.067Z,98361.98
2019-05-17T16:01:39.686Z,98355.42
2019-05-17T16:04:12.911Z,98351.89
2019-05-17T16:06:43.608Z,98351.09
2019-05-17T16:09:13.872Z,98358.81
2019-05-17T16:11:45.757Z,98368.62
2019-05-17T16:14:21.677Z,98373.56
2019-05-17T16:16:53.906Z,98375.88
2019-05-17T16:19:24.355Z,98368.89
2019-05-17T16:21:55.133Z,98364.09
2019-05-17T16:24:26.937Z,98373.86
2019-05-17T16:26:58.792Z,98377.02
2019-05-17T16:29:29.047Z,98377.52
2019-05-17T16:32:01.587Z,98380.61
2019-05-17T16:34:52.131Z,98382.40
2019-05-17T16:37:22.420Z,98383.76
2019-05-17T16:39:54.532Z,98378.02
2019-05-17T16:42:33.142Z,98371.86
2019-05-17T16:45:05.400Z,98375.43
2019-05-17T16:47:35.632Z,98365.70
2019-05-17T16:50:06.773Z,98369.69
2019-05-17T16:52:37.666Z,98371.02
2019-05-17T16:55:09.063Z,98375.45
2019-05-17T16:57:39.504Z,98378.09
2019-05-17T17:00:28.248Z,98389.55
2019-05-17T17:02:58.890Z,98389.98
2019-05-17T17:05:29.506Z,98396.61
2019-05-17T17:08:00.038Z,98394.41
2019-05-17T17:10:30.415Z,98396.58
2019-05-17T17:13:01.303Z,98402.27
2019-05-17T17:15:36.971Z,98397.41
2019-05-17T17:18:09.386Z,98393.87
2019-05-17T17:20:39.918Z,98392.12
2019-05-17T17:23:10.540Z,98385.50
2019-05-17T17:25:41.826Z,98392.98
2019-05-17T17:28:15.600Z,98398.30
2019-05-17T17:30:47.414Z,98406.28
2019-05-17T17:33:24.111Z,98405.39
2019-05-17T17:36:01.046Z,98408.46
2019-05-17T17:38:31.334Z,98410.68
2019-05-17T17:41:07.634Z,98404.95
2019-05-17T17:43:39.658Z,98410.68
2019-05-17T17:46:10.271Z,98408.85
2019-05-17T17:48:40.918Z,98416.78
2019-05-17T17:51:11.645Z,98424.66
2019-05-17T17:53:42.206Z,98428.98
2019-05-17T17:56:13.699Z,98431.47
2019-05-17T17:58:44.715Z,98435.80
2019-05-17T18:01:17.421Z,98432.18
2019-05-17T18:04:09.359Z,98443.13
2019-05-17T18:06:40.124Z,98440.69
2019-05-17T18:09:10.751Z,98446.87
2019-05-17T18:11:42.768Z,98437.11
2019-05-17T18:14:32.127Z,98438.83
2019-05-17T18:17:04.091Z,98432.94
2019-05-17T18:19:55.985Z,98434.64
2019-05-17T18:22:33.885Z,98431.86
2019-05-17T18:25:09.102Z,98436.09
2019-05-17T18:27:43.377Z,98436.50
2019-05-17T18:30:19.938Z,98439.14
2019-05-17T18:33:02.935Z,98444.72
2019-05-17T18:35:35.298Z,98447.64
2019-05-17T18:38:25.315Z,98440.50
2019-05-17T18:40:56.897Z,98447.39
2019-05-17T18:43:27.615Z,98447.84
2019-05-17T18:45:58.347Z,98434.25
2019-05-17T18:48:28.622Z,98446.06
2019-05-17T18:50:59.253Z,98445.55
2019-05-17T18:53:29.831Z,98446.78
2019-05-17T18:56:00.318Z,98453.52
2019-05-17T18:58:30.868Z,98446.29
2019-05-17T19:01:04.083Z,98433.30
2019-05-17T19:03:36.358Z,98437.22
2019-05-17T19:06:06.582Z,98440.59
2019-05-17T19:08:41.732Z,98434.36
2019-05-17T19:11:13.658Z,98438.97
2019-05-17T19:13:44.390Z,98431.78
2019-05-17T19:16:19.822Z,98434.14
2019-05-17T19:18:49.661Z,98435.02
2019-05-17T19:21:26.298Z,98423.86
2019-05-17T19:23:57.596Z,98432.48
2019-05-17T19:26:49.713Z,98427.12
2019-05-17T19:29:21.022Z,98430.55
2019-05-17T19:31:51.592Z,98431.64
2019-05-17T19:34:22.965Z,98428.90
2019-05-17T19:36:58.752Z,98438.03
2019-05-17T19:39:29.183Z,98435.80
2019-05-17T19:41:59.709Z,98432.77
2019-05-17T19:44:29.996Z,98431.80
2019-05-17T19:47:00.912Z,98425.77
2019-05-17T19:49:31.525Z,98421.67
2019-05-17T19:52:01.842Z,98415.67
2019-05-17T19:54:52.058Z,98422.56
2019-05-17T19:57:22.488Z,98422.85
2019-05-17T19:59:53.185Z,98412.98
2019-05-17T20:02:23.747Z,98408.17
2019-05-17T20:05:13.934Z,98403.84
2019-05-17T20:07:44.630Z,98397.44
2019-05-17T20:10:15.369Z,98398.45
2019-05-17T20:12:45.985Z,98402.52
2019-05-17T20:15:18.549Z,98387.32
2019-05-17T20:17:52.526Z,98386.59
2019-05-17T20:20:25.174Z,98391.07
2019-05-17T20:22:55.795Z,98391.71
2019-05-17T20:25:26.650Z,98393.41
2019-05-17T20:27:59.322Z,98394.75
2019-05-17T20:30:29.657Z,98391.80
2019-05-17T20:33:19.710Z,98389.92
2019-05-17T20:35:51.413Z,98402.45
2019-05-17T20:38:22.000Z,98403.16
2019-05-17T20:40:52.404Z,98404.77
2019-05-17T20:43:25.872Z,98397.66
2019-05-17T20:45:56.350Z,98381.51
2019-05-17T20:48:30.609Z,98391.16
2019-05-17T20:51:16.973Z,98379.84
2019-05-17T20:53:47.909Z,98372.96
2019-05-17T20:56:31.989Z,98387.65
2019-05-17T20:58:50.921Z,98386.48
2019-05-17T21:01:24.035Z,98386.05
2019-05-17T21:03:54.668Z,98381.72
2019-05-17T21:06:25.738Z,98374.05
2019-05-17T21:08:56.409Z,98368.52
2019-05-17T21:11:31.042Z,98367.51
2019-05-17T21:14:01.771Z,98369.34
2019-05-17T21:16:32.350Z,98370.53
2019-05-17T21:19:03.046Z,98371.97
2019-05-17T21:21:33.397Z,98377.13
2019-05-17T21:24:11.668Z,98373.70
2019-05-17T21:26:42.010Z,98386.30
2019-05-17T21:29:12.623Z,98383.45
2019-05-17T21:31:43.052Z,98387.72
2019-05-17T21:34:13.601Z,98385.06
2019-05-17T21:36:45.161Z,98395.69
2019-05-17T21:39:18.262Z,98404.66
2019-05-17T21:41:48.645Z,98411.47
2019-05-17T21:44:19.340Z,98410.00
2019-05-17T21:47:03.638Z,98409.30
2019-05-17T21:49:23.705Z,98406.31
2019-05-17T21:51:54.142Z,98406.53
2019-05-17T21:54:24.709Z,98409.80
2019-05-17T21:56:55.196Z,98403.55
2019-05-17T21:59:26.443Z,98402.45
2019-05-17T22:01:57.380Z,98405.39
2019-05-17T22:04:28.019Z,98417.45
2019-05-17T22:06:59.101Z,98422.08
2019-05-17T22:09:29.599Z,98425.96
2019-05-17T22:12:01.860Z,98427.52
2019-05-17T22:14:32.733Z,98431.03
2019-05-17T22:17:04.245Z,98431.27
2019-05-17T22:19:36.145Z,98423.75
2019-05-17T22:22:06.481Z,98434.67
2019-05-17T22:24:37.155Z,98430.58
2019-05-17T22:27:07.595Z,98427.84
2019-05-17T22:29:38.930Z,98421.23
2019-05-17T22:32:11.266Z,98427.56
2019-05-17T22:34:43.692Z,98427.05
2019-05-17T22:37:17.351Z,98418.86
2019-05-17T22:39:46.358Z,98412.95
2019-05-17T22:42:17.930Z,98414.37
2019-05-17T22:44:49.395Z,98417.73
2019-05-17T22:47:20.011Z,98413.81
2019-05-17T22:49:50.439Z,98415.81
2019-05-17T22:52:21.056Z,98414.66
2019-05-17T22:54:51.761Z,98415.63
2019-05-17T22:57:22.338Z,98409.28
2019-05-17T22:59:52.966Z,98404.14
2019-05-17T23:02:25.079Z,98403.38
2019-05-17T23:04:56.173Z,98401.05
2019-05-17T23:07:26.745Z,98386.95
2019-05-17T23:09:57.336Z,98396.39
2019-05-17T23:12:27.970Z,98392.79
2019-05-17T23:14:58.595Z,98377.78
2019-05-17T23:17:29.194Z,98377.95
2019-05-17T23:19:59.834Z,98381.59
2019-05-17T23:22:30.428Z,98370.09
2019-05-17T23:25:02.080Z,98367.80
2019-05-17T23:27:34.831Z,98367.62
2019-05-17T23:30:06.008Z,98372.97
2019-05-17T23:32:37.039Z,98375.52
2019-05-17T23:35:07.212Z,98380.91
2019-05-17T23:37:38.793Z,98385.39
2019-05-17T23:40:09.413Z,98373.23
2019-05-17T23:42:39.939Z,98367.14
2019-05-17T23:45:10.287Z,98369.01
2019-05-17T23:47:42.540Z,98370.32
2019-05-17T23:50:13.162Z,98370.70
2019-05-17T23:52:43.842Z,98368.89
2019-05-17T23:55:14.013Z,98360.10
2019-05-17T23:57:44.547Z,98368.38
